createdAt,value
2023-03-10T00:01:23.672Z,7.99
2023-03-10T00:05:18.802Z,7.99
2023-03-10T00:08:54.682Z,8.00
2023-03-10T00:12:48.670Z,7.90
2023-03-10T00:24:52.979Z,7.69
2023-03-10T00:28:41.853Z,7.73
2023-03-10T00:31:57.013Z,7.69
2023-03-10T00:35:24.846Z,7.81
2023-03-10T00:38:52.662Z,7.72
2023-03-10T00:42:14.286Z,7.53
2023-03-10T00:45:48.906Z,7.41
2023-03-10T00:49:36.814Z,7.32
2023-03-10T00:53:15.027Z,7.38
2023-03-10T00:56:43.690Z,7.29
2023-03-10T01:00:28.726Z,7.28
2023-03-10T01:03:31.848Z,7.25
2023-03-10T01:06:50.715Z,7.13
2023-03-10T01:10:19.285Z,7.18
2023-03-10T01:13:59.910Z,7.17
2023-03-10T01:17:09.361Z,7.07
2023-03-10T01:21:16.995Z,7.07
2023-03-10T01:28:43.735Z,7.15
2023-03-10T01:32:21.906Z,7.10
2023-03-10T01:35:53.781Z,7.06
2023-03-10T01:39:21.659Z,6.94
2023-03-10T01:42:37.691Z,7.08
2023-03-10T01:46:13.978Z,7.11
2023-03-10T01:50:01.518Z,6.68
2023-03-10T01:53:57.807Z,6.98
2023-03-10T01:57:36.012Z,6.95
2023-03-10T02:00:53.077Z,6.72
2023-03-10T02:04:21.554Z,6.83
2023-03-10T02:08:10.877Z,6.77
2023-03-10T02:11:27.784Z,6.06
2023-03-10T02:15:07.615Z,6.80
2023-03-10T02:30:38.013Z,6.46
2023-03-10T02:46:26.707Z,6.45
2023-03-10T02:49:54.761Z,6.05
2023-03-10T02:53:34.865Z,6.20
2023-03-10T02:56:49.695Z,6.21
2023-03-10T03:08:27.356Z,6.54
2023-03-10T03:12:08.896Z,6.44
2023-03-10T03:15:19.054Z,6.16
2023-03-10T03:18:30.395Z,6.31
2023-03-10T03:22:19.086Z,6.25
2023-03-10T03:26:16.570Z,6.36
2023-03-10T03:30:13.961Z,6.37
2023-03-10T03:33:35.716Z,6.37
2023-03-10T03:36:51.729Z,6.37
2023-03-10T03:40:14.611Z,6.51
2023-03-10T03:44:03.299Z,6.39
2023-03-10T03:47:34.289Z,6.50
2023-03-10T03:50:50.739Z,6.37
2023-03-10T03:53:53.882Z,5.28
2023-03-10T03:57:33.866Z,5.66
2023-03-10T04:01:26.685Z,6.43
2023-03-10T04:05:21.896Z,6.48
2023-03-10T04:09:13.976Z,6.41
2023-03-10T04:12:42.676Z,6.51
2023-03-10T04:16:03.971Z,6.41
2023-03-10T04:19:07.244Z,5.26
2023-03-10T04:22:22.701Z,6.40
2023-03-10T04:26:15.149Z,5.54
2023-03-10T04:30:14.062Z,6.40
2023-03-10T04:37:36.502Z,6.24
2023-03-10T04:41:24.929Z,6.17
2023-03-10T04:45:20.826Z,6.25
2023-03-10T04:48:29.531Z,6.28
2023-03-10T04:51:44.769Z,6.22
2023-03-10T04:54:49.078Z,6.33
2023-03-10T04:58:03.707Z,6.31
2023-03-10T05:01:22.806Z,6.29
2023-03-10T05:04:52.737Z,6.14
2023-03-10T05:07:55.403Z,6.05
2023-03-10T05:11:17.941Z,5.93
2023-03-10T05:14:43.724Z,6.00
2023-03-10T05:18:19.076Z,6.18
2023-03-10T05:21:47.170Z,6.11
2023-03-10T05:25:17.707Z,6.07
2023-03-10T05:28:53.101Z,6.09
2023-03-10T05:32:16.649Z,6.09
2023-03-10T05:35:51.833Z,6.12
2023-03-10T05:39:17.109Z,6.11
2023-03-10T05:42:45.760Z,6.25
2023-03-10T05:46:20.487Z,6.26
2023-03-10T05:57:40.231Z,6.90
2023-03-10T06:01:33.144Z,6.92
2023-03-10T06:05:43.857Z,7.38
2023-03-10T06:13:59.817Z,7.93
2023-03-10T06:17:08.768Z,8.38
2023-03-10T06:20:23.875Z,8.51
2023-03-10T06:31:28.881Z,9.46
2023-03-10T06:34:37.483Z,9.29
2023-03-10T06:38:05.974Z,9.90
2023-03-10T06:41:56.682Z,10.21
2023-03-10T06:45:31.800Z,10.63
2023-03-10T06:49:00.542Z,10.93
2023-03-10T06:52:14.827Z,10.69
2023-03-10T06:55:23.842Z,10.54
2023-03-10T06:58:44.680Z,10.23
2023-03-10T07:05:49.098Z,9.92
2023-03-10T07:12:59.921Z,10.22
2023-03-10T07:45:22.884Z,10.26
2023-03-10T07:48:58.181Z,10.28
2023-03-10T07:52:33.242Z,10.93
2023-03-10T08:04:21.388Z,11.71
2023-03-10T08:24:03.320Z,12.69
2023-03-10T08:49:43.164Z,13.48
2023-03-10T08:54:07.280Z,13.73
2023-03-10T09:06:17.184Z,14.01
2023-03-10T09:25:10.114Z,14.63
2023-03-10T09:28:56.978Z,14.09
2023-03-10T09:32:17.849Z,12.47
2023-03-10T09:35:32.953Z,13.66
2023-03-10T11:13:10.485Z,16.47
2023-03-10T12:12:39.234Z,16.94
2023-03-10T12:45:20.974Z,16.84
2023-03-10T12:49:08.591Z,16.81
2023-03-10T12:52:56.872Z,16.78
2023-03-10T13:18:32.302Z,15.93
2023-03-10T13:22:18.453Z,16.92
2023-03-10T13:30:08.812Z,17.03
2023-03-10T13:42:09.970Z,17.00
2023-03-10T13:49:41.693Z,16.77
2023-03-10T13:53:05.232Z,16.67
2023-03-10T13:56:41.070Z,16.46
2023-03-10T14:00:51.331Z,16.51
2023-03-10T14:04:58.341Z,15.27
2023-03-10T14:08:36.970Z,15.31
2023-03-10T14:11:54.246Z,16.11
2023-03-10T14:15:44.448Z,16.03
2023-03-10T14:27:58.265Z,16.08
2023-03-10T14:31:13.096Z,16.10
2023-03-10T14:34:15.110Z,15.48
2023-03-10T14:37:32.242Z,16.06
2023-03-10T14:40:58.775Z,15.17
2023-03-10T14:44:17.169Z,15.69
2023-03-10T14:47:45.878Z,16.00
2023-03-10T14:50:56.838Z,15.71
2023-03-10T14:54:41.998Z,15.63
2023-03-10T14:58:02.895Z,15.62
2023-03-10T15:01:05.811Z,15.61
2023-03-10T15:04:23.176Z,15.53
2023-03-10T15:11:37.003Z,15.39
2023-03-10T15:15:16.274Z,15.33
2023-03-10T15:18:50.930Z,15.34
2023-03-10T15:22:17.122Z,15.32
2023-03-10T15:25:51.021Z,15.23
2023-03-10T15:29:07.456Z,15.15
2023-03-10T15:32:51.314Z,15.08
2023-03-10T15:36:29.447Z,14.06
2023-03-10T15:47:52.932Z,14.45
2023-03-10T15:51:37.853Z,14.67
2023-03-10T15:54:49.582Z,14.62
2023-03-10T16:30:31.310Z,14.05
2023-03-10T16:53:54.861Z,13.46
2023-03-10T16:57:28.725Z,13.40
2023-03-10T17:20:56.436Z,12.55
2023-03-10T17:24:54.034Z,13.34
2023-03-10T17:29:02.361Z,13.27
2023-03-10T17:32:29.817Z,13.19
2023-03-10T17:36:14.504Z,13.18
2023-03-10T17:39:36.344Z,12.64
2023-03-10T17:43:13.251Z,13.05
2023-03-10T17:47:14.416Z,13.08
2023-03-10T17:55:28.396Z,12.86
2023-03-10T18:03:21.153Z,13.04
2023-03-10T18:07:20.080Z,13.11
2023-03-10T18:10:38.581Z,13.09
2023-03-10T18:17:30.764Z,12.98
2023-03-10T18:21:21.677Z,13.05
2023-03-10T18:25:16.205Z,13.01
2023-03-10T18:29:14.081Z,12.95
2023-03-10T18:32:30.590Z,12.80
2023-03-10T18:36:09.532Z,12.92
2023-03-10T18:39:21.066Z,12.86
2023-03-10T18:43:12.144Z,12.92
2023-03-10T18:59:21.865Z,12.32
2023-03-10T19:02:54.407Z,11.72
2023-03-10T19:06:04.577Z,12.27
2023-03-10T19:21:10.280Z,12.14
2023-03-10T19:37:21.017Z,11.91
2023-03-10T19:40:57.012Z,11.73
2023-03-10T19:44:06.074Z,11.71
2023-03-10T19:50:43.719Z,11.18
2023-03-10T21:19:38.917Z,9.77
2023-03-10T21:23:38.777Z,10.86
2023-03-10T22:15:39.141Z,10.61
2023-03-10T22:19:34.242Z,10.51
2023-03-10T22:23:10.441Z,10.45
